sensor_id;sensor_type;location;lat;lon;timestamp;pressure;altitude;pressure_sealevel;temperature
20848;BMP180;10584;50.854;12.902;2023-08-17T00:03:07;98369.00;;;19.40
20848;BMP180;10584;50.854;12.902;2023-08-17T00:08:28;98376.00;;;19.40
20848;BMP180;10584;50.854;12.902;2023-08-17T00:13:50;98386.00;;;19.30
20848;BMP180;10584;50.854;12.902;2023-08-17T00:19:12;98371.00;;;19.30
20848;BMP180;10584;50.854;12.902;2023-08-17T00:24:34;98380.00;;;19.30
20848;BMP180;10584;50.854;12.902;2023-08-17T00:29:55;98382.00;;;19.20
20848;BMP180;10584;50.854;12.902;2023-08-17T00:35:19;98375.00;;;19.20
20848;BMP180;10584;50.854;12.902;2023-08-17T00:40:41;98364.00;;;19.20
20848;BMP180;10584;50.854;12.902;2023-08-17T00:46:03;98365.00;;;19.20
20848;BMP180;10584;50.854;12.902;2023-08-17T00:51:27;98360.00;;;19.10
20848;BMP180;10584;50.854;12.902;2023-08-17T00:56:49;98349.00;;;19.10
20848;BMP180;10584;50.854;12.902;2023-08-17T01:02:11;98336.00;;;19.10
20848;BMP180;10584;50.854;12.902;2023-08-17T01:07:33;98322.00;;;19.00
20848;BMP180;10584;50.854;12.902;2023-08-17T01:13:13;98310.00;;;19.00
20848;BMP180;10584;50.854;12.902;2023-08-17T01:18:38;98309.00;;;18.90
20848;BMP180;10584;50.854;12.902;2023-08-17T01:24:03;98312.00;;;18.80
20848;BMP180;10584;50.854;12.902;2023-08-17T01:29:27;98312.00;;;18.80
20848;BMP180;10584;50.854;12.902;2023-08-17T01:34:58;98306.00;;;18.70
20848;BMP180;10584;50.854;12.902;2023-08-17T01:40:23;98317.00;;;18.70
20848;BMP180;10584;50.854;12.902;2023-08-17T01:45:45;98324.00;;;18.60
20848;BMP180;10584;50.854;12.902;2023-08-17T01:51:08;98329.00;;;18.60
20848;BMP180;10584;50.854;12.902;2023-08-17T01:56:29;98340.00;;;18.50
20848;BMP180;10584;50.854;12.902;2023-08-17T02:01:50;98337.00;;;18.40
20848;BMP180;10584;50.854;12.902;2023-08-17T02:07:12;98351.00;;;18.40
20848;BMP180;10584;50.854;12.902;2023-08-17T02:12:33;98365.00;;;18.40
20848;BMP180;10584;50.854;12.902;2023-08-17T02:18:00;98370.00;;;18.30
20848;BMP180;10584;50.854;12.902;2023-08-17T02:23:22;98382.00;;;18.30
20848;BMP180;10584;50.854;12.902;2023-08-17T02:28:46;98361.00;;;18.20
20848;BMP180;10584;50.854;12.902;2023-08-17T02:34:10;98354.00;;;18.20
20848;BMP180;10584;50.854;12.902;2023-08-17T02:39:32;98361.00;;;18.20
20848;BMP180;10584;50.854;12.902;2023-08-17T02:44:56;98359.00;;;18.20
20848;BMP180;10584;50.854;12.902;2023-08-17T02:50:18;98352.00;;;18.10
20848;BMP180;10584;50.854;12.902;2023-08-17T02:55:39;98348.00;;;18.10
20848;BMP180;10584;50.854;12.902;2023-08-17T03:01:03;98350.00;;;18.10
20848;BMP180;10584;50.854;12.902;2023-08-17T03:06:24;98357.00;;;18.00
20848;BMP180;10584;50.854;12.902;2023-08-17T03:11:46;98403.00;;;17.90
20848;BMP180;10584;50.854;12.902;2023-08-17T03:17:07;98373.00;;;18.00
20848;BMP180;10584;50.854;12.902;2023-08-17T03:22:29;98395.00;;;18.10
20848;BMP180;10584;50.854;12.902;2023-08-17T03:27:51;98392.00;;;18.30
20848;BMP180;10584;50.854;12.902;2023-08-17T03:33:14;98398.00;;;18.30
20848;BMP180;10584;50.854;12.902;2023-08-17T03:38:36;98417.00;;;18.50
20848;BMP180;10584;50.854;12.902;2023-08-17T03:43:59;98420.00;;;18.60
20848;BMP180;10584;50.854;12.902;2023-08-17T03:49:21;98431.00;;;18.60
20848;BMP180;10584;50.854;12.902;2023-08-17T03:54:43;98438.00;;;18.70
20848;BMP180;10584;50.854;12.902;2023-08-17T04:00:05;98438.00;;;18.80
20848;BMP180;10584;50.854;12.902;2023-08-17T04:05:33;98429.00;;;18.90
20848;BMP180;10584;50.854;12.902;2023-08-17T04:10:55;98441.00;;;18.90
20848;BMP180;10584;50.854;12.902;2023-08-17T04:16:16;98445.00;;;18.90
20848;BMP180;10584;50.854;12.902;2023-08-17T04:21:38;98441.00;;;18.90
20848;BMP180;10584;50.854;12.902;2023-08-17T04:27:00;98443.00;;;19.00
20848;BMP180;10584;50.854;12.902;2023-08-17T04:32:21;98441.00;;;19.10
20848;BMP180;10584;50.854;12.902;2023-08-17T04:37:43;98447.00;;;19.10
20848;BMP180;10584;50.854;12.902;2023-08-17T04:43:05;98447.00;;;19.10
20848;BMP180;10584;50.854;12.902;2023-08-17T04:48:26;98451.00;;;19.20
20848;BMP180;10584;50.854;12.902;2023-08-17T04:53:48;98455.00;;;19.10
20848;BMP180;10584;50.854;12.902;2023-08-17T04:59:10;98460.00;;;19.20
20848;BMP180;10584;50.854;12.902;2023-08-17T05:04:34;98466.00;;;19.10
20848;BMP180;10584;50.854;12.902;2023-08-17T05:09:56;98460.00;;;18.90
20848;BMP180;10584;50.854;12.902;2023-08-17T05:15:18;98456.00;;;19.20
20848;BMP180;10584;50.854;12.902;2023-08-17T05:20:40;98455.00;;;19.20
20848;BMP180;10584;50.854;12.902;2023-08-17T05:26:01;98456.00;;;19.30
20848;BMP180;10584;50.854;12.902;2023-08-17T05:31:24;98437.00;;;19.40
20848;BMP180;10584;50.854;12.902;2023-08-17T05:36:47;98448.00;;;19.40
20848;BMP180;10584;50.854;12.902;2023-08-17T05:42:08;98444.00;;;19.60
20848;BMP180;10584;50.854;12.902;2023-08-17T05:47:34;98440.00;;;19.60
20848;BMP180;10584;50.854;12.902;2023-08-17T05:52:55;98433.00;;;19.70
20848;BMP180;10584;50.854;12.902;2023-08-17T05:58:19;98429.00;;;19.70
20848;BMP180;10584;50.854;12.902;2023-08-17T06:03:41;98436.00;;;19.90
20848;BMP180;10584;50.854;12.902;2023-08-17T06:09:02;98424.00;;;19.90
20848;BMP180;10584;50.854;12.902;2023-08-17T06:14:24;98430.00;;;20.10
20848;BMP180;10584;50.854;12.902;2023-08-17T06:19:45;98423.00;;;20.10
20848;BMP180;10584;50.854;12.902;2023-08-17T06:25:07;98417.00;;;20.20
20848;BMP180;10584;50.854;12.902;2023-08-17T06:30:29;98406.00;;;20.40
20848;BMP180;10584;50.854;12.902;2023-08-17T06:35:51;98406.00;;;20.50
20848;BMP180;10584;50.854;12.902;2023-08-17T06:41:12;98394.00;;;20.50
20848;BMP180;10584;50.854;12.902;2023-08-17T06:46:34;98386.00;;;20.80
20848;BMP180;10584;50.854;12.902;2023-08-17T06:51:56;98384.00;;;21.00
20848;BMP180;10584;50.854;12.902;2023-08-17T06:57:17;98380.00;;;21.20
20848;BMP180;10584;50.854;12.902;2023-08-17T07:02:40;98386.00;;;21.30
20848;BMP180;10584;50.854;12.902;2023-08-17T07:08:15;98384.00;;;21.20
20848;BMP180;10584;50.854;12.902;2023-08-17T07:13:37;98383.00;;;21.30
20848;BMP180;10584;50.854;12.902;2023-08-17T07:18:58;98382.00;;;21.40
20848;BMP180;10584;50.854;12.902;2023-08-17T07:24:20;98383.00;;;21.50
20848;BMP180;10584;50.854;12.902;2023-08-17T07:29:42;98388.00;;;21.60
20848;BMP180;10584;50.854;12.902;2023-08-17T07:35:04;98387.00;;;21.70
20848;BMP180;10584;50.854;12.902;2023-08-17T07:40:25;98404.00;;;21.90
20848;BMP180;10584;50.854;12.902;2023-08-17T07:45:54;98412.00;;;22.00
20848;BMP180;10584;50.854;12.902;2023-08-17T07:51:15;98408.00;;;22.10
20848;BMP180;10584;50.854;12.902;2023-08-17T07:56:37;98400.00;;;22.20
20848;BMP180;10584;50.854;12.902;2023-08-17T08:01:59;98396.00;;;22.30
20848;BMP180;10584;50.854;12.902;2023-08-17T08:07:20;98400.00;;;22.50
20848;BMP180;10584;50.854;12.902;2023-08-17T08:12:42;98405.00;;;22.60
20848;BMP180;10584;50.854;12.902;2023-08-17T08:18:04;98392.00;;;22.80
20848;BMP180;10584;50.854;12.902;2023-08-17T08:23:25;98385.00;;;23.00
20848;BMP180;10584;50.854;12.902;2023-08-17T08:28:47;98383.00;;;23.10
20848;BMP180;10584;50.854;12.902;2023-08-17T08:34:09;98384.00;;;23.60
20848;BMP180;10584;50.854;12.902;2023-08-17T08:39:30;98375.00;;;23.90
20848;BMP180;10584;50.854;12.902;2023-08-17T08:44:52;98368.00;;;24.20
20848;BMP180;10584;50.854;12.902;2023-08-17T08:50:20;98365.00;;;24.40
20848;BMP180;10584;50.854;12.902;2023-08-17T08:55:55;98364.00;;;24.70
20848;BMP180;10584;50.854;12.902;2023-08-17T09:01:18;98360.00;;;25.10
20848;BMP180;10584;50.854;12.902;2023-08-17T09:06:41;98363.00;;;25.30
20848;BMP180;10584;50.854;12.902;2023-08-17T09:12:05;98357.00;;;25.30
20848;BMP180;10584;50.854;12.902;2023-08-17T09:17:28;98348.00;;;25.30
20848;BMP180;10584;50.854;12.902;2023-08-17T09:22:49;98354.00;;;25.30
20848;BMP180;10584;50.854;12.902;2023-08-17T09:28:15;98351.00;;;25.30
20848;BMP180;10584;50.854;12.902;2023-08-17T09:33:37;98357.00;;;25.40
20848;BMP180;10584;50.854;12.902;2023-08-17T09:38:59;98362.00;;;25.50
20848;BMP180;10584;50.854;12.902;2023-08-17T09:44:22;98353.00;;;25.60
20848;BMP180;10584;50.854;12.902;2023-08-17T09:49:54;98344.00;;;25.90
20848;BMP180;10584;50.854;12.902;2023-08-17T09:55:16;98346.00;;;26.30
20848;BMP180;10584;50.854;12.902;2023-08-17T10:00:38;98337.00;;;26.70
20848;BMP180;10584;50.854;12.902;2023-08-17T10:06:05;98333.00;;;26.90
20848;BMP180;10584;50.854;12.902;2023-08-17T10:11:32;98334.00;;;26.90
20848;BMP180;10584;50.854;12.902;2023-08-17T10:17:01;98329.00;;;26.90
20848;BMP180;10584;50.854;12.902;2023-08-17T10:22:27;98334.00;;;26.80
20848;BMP180;10584;50.854;12.902;2023-08-17T10:27:50;98344.00;;;26.80
20848;BMP180;10584;50.854;12.902;2023-08-17T10:33:13;98332.00;;;27.10
20848;BMP180;10584;50.854;12.902;2023-08-17T10:38:35;98336.00;;;27.20
20848;BMP180;10584;50.854;12.902;2023-08-17T10:44:00;98335.00;;;27.20
20848;BMP180;10584;50.854;12.902;2023-08-17T10:49:26;98333.00;;;27.30
20848;BMP180;10584;50.854;12.902;2023-08-17T10:54:48;98324.00;;;27.50
20848;BMP180;10584;50.854;12.902;2023-08-17T11:11:11;98322.00;;;28.20
20848;BMP180;10584;50.854;12.902;2023-08-17T11:16:33;98324.00;;;28.20
20848;BMP180;10584;50.854;12.902;2023-08-17T11:21:55;98326.00;;;28.20
20848;BMP180;10584;50.854;12.902;2023-08-17T11:27:17;98336.00;;;28.10
20848;BMP180;10584;50.854;12.902;2023-08-17T11:32:39;98322.00;;;28.40
20848;BMP180;10584;50.854;12.902;2023-08-17T11:38:01;98311.00;;;28.70
20848;BMP180;10584;50.854;12.902;2023-08-17T11:43:29;98304.00;;;28.90
20848;BMP180;10584;50.854;12.902;2023-08-17T11:48:51;98296.00;;;29.00
20848;BMP180;10584;50.854;12.902;2023-08-17T11:54:14;98297.00;;;29.20
20848;BMP180;10584;50.854;12.902;2023-08-17T11:59:36;98296.00;;;29.60
20848;BMP180;10584;50.854;12.902;2023-08-17T12:04:58;98295.00;;;29.60
20848;BMP180;10584;50.854;12.902;2023-08-17T12:10:23;98286.00;;;29.90
20848;BMP180;10584;50.854;12.902;2023-08-17T12:15:45;98284.00;;;30.00
20848;BMP180;10584;50.854;12.902;2023-08-17T12:21:06;98283.00;;;30.10
20848;BMP180;10584;50.854;12.902;2023-08-17T12:26:28;98283.00;;;30.20
20848;BMP180;10584;50.854;12.902;2023-08-17T12:31:53;98267.00;;;30.10
20848;BMP180;10584;50.854;12.902;2023-08-17T12:37:19;98275.00;;;29.70
20848;BMP180;10584;50.854;12.902;2023-08-17T12:42:42;98284.00;;;29.60
20848;BMP180;10584;50.854;12.902;2023-08-17T12:48:04;98281.00;;;29.50
20848;BMP180;10584;50.854;12.902;2023-08-17T12:53:25;98264.00;;;29.30
20848;BMP180;10584;50.854;12.902;2023-08-17T12:58:47;98273.00;;;29.30
20848;BMP180;10584;50.854;12.902;2023-08-17T13:04:09;98268.00;;;29.10
20848;BMP180;10584;50.854;12.902;2023-08-17T13:09:30;98274.00;;;28.70
20848;BMP180;10584;50.854;12.902;2023-08-17T13:14:52;98275.00;;;28.20
20848;BMP180;10584;50.854;12.902;2023-08-17T13:20:14;98274.00;;;28.20
20848;BMP180;10584;50.854;12.902;2023-08-17T13:25:35;98262.00;;;28.10
20848;BMP180;10584;50.854;12.902;2023-08-17T13:30:57;98264.00;;;27.90
20848;BMP180;10584;50.854;12.902;2023-08-17T13:36:34;98271.00;;;27.70
20848;BMP180;10584;50.854;12.902;2023-08-17T13:41:55;98265.00;;;27.60
20848;BMP180;10584;50.854;12.902;2023-08-17T13:47:17;98250.00;;;27.50
20848;BMP180;10584;50.854;12.902;2023-08-17T13:52:38;98233.00;;;27.40
20848;BMP180;10584;50.854;12.902;2023-08-17T13:58:00;98212.00;;;27.30
20848;BMP180;10584;50.854;12.902;2023-08-17T14:03:22;98204.00;;;27.20
20848;BMP180;10584;50.854;12.902;2023-08-17T14:08:44;98204.00;;;27.20
20848;BMP180;10584;50.854;12.902;2023-08-17T14:14:05;98222.00;;;27.20
20848;BMP180;10584;50.854;12.902;2023-08-17T14:19:29;98243.00;;;27.30
20848;BMP180;10584;50.854;12.902;2023-08-17T14:24:52;98257.00;;;27.40
20848;BMP180;10584;50.854;12.902;2023-08-17T14:30:13;98252.00;;;27.40
20848;BMP180;10584;50.854;12.902;2023-08-17T14:35:35;98241.00;;;27.40
20848;BMP180;10584;50.854;12.902;2023-08-17T14:40:56;98245.00;;;27.30
20848;BMP180;10584;50.854;12.902;2023-08-17T14:46:18;98248.00;;;27.20
20848;BMP180;10584;50.854;12.902;2023-08-17T14:51:41;98245.00;;;27.10
20848;BMP180;10584;50.854;12.902;2023-08-17T14:57:03;98248.00;;;26.90
20848;BMP180;10584;50.854;12.902;2023-08-17T15:02:27;98253.00;;;26.80
20848;BMP180;10584;50.854;12.902;2023-08-17T15:07:49;98258.00;;;26.60
20848;BMP180;10584;50.854;12.902;2023-08-17T15:13:11;98266.00;;;26.50
20848;BMP180;10584;50.854;12.902;2023-08-17T15:18:32;98269.00;;;26.30
20848;BMP180;10584;50.854;12.902;2023-08-17T15:23:54;98275.00;;;26.20
20848;BMP180;10584;50.854;12.902;2023-08-17T15:29:16;98272.00;;;26.10
20848;BMP180;10584;50.854;12.902;2023-08-17T15:34:37;98280.00;;;26.00
20848;BMP180;10584;50.854;12.902;2023-08-17T15:39:59;98274.00;;;25.70
20848;BMP180;10584;50.854;12.902;2023-08-17T15:45:20;98278.00;;;25.40
20848;BMP180;10584;50.854;12.902;2023-08-17T15:50:43;98271.00;;;25.40
20848;BMP180;10584;50.854;12.902;2023-08-17T15:56:04;98265.00;;;25.40
20848;BMP180;10584;50.854;12.902;2023-08-17T16:01:27;98256.00;;;25.30
20848;BMP180;10584;50.854;12.902;2023-08-17T16:06:49;98247.00;;;25.30
20848;BMP180;10584;50.854;12.902;2023-08-17T16:12:11;98258.00;;;25.20
20848;BMP180;10584;50.854;12.902;2023-08-17T16:17:32;98252.00;;;24.90
20848;BMP180;10584;50.854;12.902;2023-08-17T16:22:54;98255.00;;;24.90
20848;BMP180;10584;50.854;12.902;2023-08-17T16:28:16;98262.00;;;24.90
20848;BMP180;10584;50.854;12.902;2023-08-17T16:33:37;98251.00;;;24.60
20848;BMP180;10584;50.854;12.902;2023-08-17T16:39:01;98253.00;;;24.50
20848;BMP180;10584;50.854;12.902;2023-08-17T16:44:22;98240.00;;;24.30
20848;BMP180;10584;50.854;12.902;2023-08-17T16:49:47;98245.00;;;24.30
20848;BMP180;10584;50.854;12.902;2023-08-17T16:55:09;98254.00;;;24.20
20848;BMP180;10584;50.854;12.902;2023-08-17T17:00:31;98256.00;;;24.10
20848;BMP180;10584;50.854;12.902;2023-08-17T17:05:52;98265.00;;;24.00
20848;BMP180;10584;50.854;12.902;2023-08-17T17:11:14;98268.00;;;23.90
20848;BMP180;10584;50.854;12.902;2023-08-17T17:16:36;98281.00;;;23.90
20848;BMP180;10584;50.854;12.902;2023-08-17T17:21:57;98289.00;;;23.80
20848;BMP180;10584;50.854;12.902;2023-08-17T17:27:19;98282.00;;;23.70
20848;BMP180;10584;50.854;12.902;2023-08-17T17:32:42;98294.00;;;23.70
20848;BMP180;10584;50.854;12.902;2023-08-17T17:38:03;98306.00;;;23.60
20848;BMP180;10584;50.854;12.902;2023-08-17T17:43:25;98312.00;;;23.50
20848;BMP180;10584;50.854;12.902;2023-08-17T17:48:47;98311.00;;;23.50
20848;BMP180;10584;50.854;12.902;2023-08-17T17:54:08;98303.00;;;23.40
20848;BMP180;10584;50.854;12.902;2023-08-17T17:59:30;98302.00;;;23.30
20848;BMP180;10584;50.854;12.902;2023-08-17T18:04:52;98308.00;;;23.30
20848;BMP180;10584;50.854;12.902;2023-08-17T18:10:14;98298.00;;;23.20
20848;BMP180;10584;50.854;12.902;2023-08-17T18:15:37;98293.00;;;23.10
20848;BMP180;10584;50.854;12.902;2023-08-17T18:20:59;98294.00;;;23.00
20848;BMP180;10584;50.854;12.902;2023-08-17T18:26:21;98299.00;;;23.00
20848;BMP180;10584;50.854;12.902;2023-08-17T18:31:43;98300.00;;;22.90
20848;BMP180;10584;50.854;12.902;2023-08-17T18:37:05;98293.00;;;22.80
20848;BMP180;10584;50.854;12.902;2023-08-17T18:42:26;98318.00;;;22.70
20848;BMP180;10584;50.854;12.902;2023-08-17T18:47:51;98322.00;;;22.70
20848;BMP180;10584;50.854;12.902;2023-08-17T18:53:13;98322.00;;;22.60
20848;BMP180;10584;50.854;12.902;2023-08-17T18:58:34;98332.00;;;22.60
20848;BMP180;10584;50.854;12.902;2023-08-17T19:03:56;98340.00;;;22.50
20848;BMP180;10584;50.854;12.902;2023-08-17T19:09:17;98349.00;;;22.40
20848;BMP180;10584;50.854;12.902;2023-08-17T19:14:39;98359.00;;;22.20
20848;BMP180;10584;50.854;12.902;2023-08-17T19:20:00;98382.00;;;22.00
20848;BMP180;10584;50.854;12.902;2023-08-17T19:25:22;98407.00;;;21.80
20848;BMP180;10584;50.854;12.902;2023-08-17T19:30:44;98420.00;;;21.80
20848;BMP180;10584;50.854;12.902;2023-08-17T19:36:06;98404.00;;;21.90
20848;BMP180;10584;50.854;12.902;2023-08-17T19:41:27;98390.00;;;21.90
20848;BMP180;10584;50.854;12.902;2023-08-17T19:46:49;98377.00;;;22.00
20848;BMP180;10584;50.854;12.902;2023-08-17T19:52:11;98365.00;;;21.90
20848;BMP180;10584;50.854;12.902;2023-08-17T19:57:32;98350.00;;;22.00
20848;BMP180;10584;50.854;12.902;2023-08-17T20:02:54;98350.00;;;22.00
20848;BMP180;10584;50.854;12.902;2023-08-17T20:08:16;98340.00;;;21.90
20848;BMP180;10584;50.854;12.902;2023-08-17T20:13:38;98339.00;;;21.90
20848;BMP180;10584;50.854;12.902;2023-08-17T20:18:59;98335.00;;;21.80
20848;BMP180;10584;50.854;12.902;2023-08-17T20:24:21;98338.00;;;21.70
20848;BMP180;10584;50.854;12.902;2023-08-17T20:29:43;98337.00;;;21.60
20848;BMP180;10584;50.854;12.902;2023-08-17T20:35:04;98349.00;;;21.50
20848;BMP180;10584;50.854;12.902;2023-08-17T20:40:26;98352.00;;;21.40
20848;BMP180;10584;50.854;12.902;2023-08-17T20:45:47;98339.00;;;21.30
20848;BMP180;10584;50.854;12.902;2023-08-17T20:51:09;98327.00;;;21.40
20848;BMP180;10584;50.854;12.902;2023-08-17T20:56:30;98337.00;;;21.30
20848;BMP180;10584;50.854;12.902;2023-08-17T21:01:53;98329.00;;;21.40
20848;BMP180;10584;50.854;12.902;2023-08-17T21:07:15;98336.00;;;21.30
20848;BMP180;10584;50.854;12.902;2023-08-17T21:12:36;98334.00;;;21.30
20848;BMP180;10584;50.854;12.902;2023-08-17T21:17:58;98337.00;;;21.30
20848;BMP180;10584;50.854;12.902;2023-08-17T21:23:20;98339.00;;;21.30
20848;BMP180;10584;50.854;12.902;2023-08-17T21:28:41;98324.00;;;21.20
20848;BMP180;10584;50.854;12.902;2023-08-17T21:34:03;98330.00;;;21.20
20848;BMP180;10584;50.854;12.902;2023-08-17T21:39:24;98335.00;;;21.10
20848;BMP180;10584;50.854;12.902;2023-08-17T21:44:46;98333.00;;;21.10
20848;BMP180;10584;50.854;12.902;2023-08-17T21:50:08;98329.00;;;21.00
20848;BMP180;10584;50.854;12.902;2023-08-17T21:55:29;98334.00;;;21.00
20848;BMP180;10584;50.854;12.902;2023-08-17T22:00:51;98334.00;;;20.90
20848;BMP180;10584;50.854;12.902;2023-08-17T22:06:12;98341.00;;;20.80
20848;BMP180;10584;50.854;12.902;2023-08-17T22:11:34;98337.00;;;20.70
20848;BMP180;10584;50.854;12.902;2023-08-17T22:16:56;98344.00;;;20.60
20848;BMP180;10584;50.854;12.902;2023-08-17T22:22:18;98355.00;;;20.50
20848;BMP180;10584;50.854;12.902;2023-08-17T22:27:39;98355.00;;;20.40
20848;BMP180;10584;50.854;12.902;2023-08-17T22:33:01;98357.00;;;20.30
20848;BMP180;10584;50.854;12.902;2023-08-17T22:38:22;98349.00;;;20.20
20848;BMP180;10584;50.854;12.902;2023-08-17T22:43:44;98343.00;;;20.20
20848;BMP180;10584;50.854;12.902;2023-08-17T22:49:05;98344.00;;;20.00
20848;BMP180;10584;50.854;12.902;2023-08-17T22:54:27;98328.00;;;19.90
20848;BMP180;10584;50.854;12.902;2023-08-17T22:59:49;98327.00;;;19.90
20848;BMP180;10584;50.854;12.902;2023-08-17T23:05:10;98331.00;;;19.90
20848;BMP180;10584;50.854;12.902;2023-08-17T23:10:32;98336.00;;;19.80
20848;BMP180;10584;50.854;12.902;2023-08-17T23:15:54;98333.00;;;19.70
20848;BMP180;10584;50.854;12.902;2023-08-17T23:21:15;98335.00;;;19.60
20848;BMP180;10584;50.854;12.902;2023-08-17T23:26:37;98337.00;;;19.60
20848;BMP180;10584;50.854;12.902;2023-08-17T23:31:59;98347.00;;;19.50
20848;BMP180;10584;50.854;12.902;2023-08-17T23:37:41;98354.00;;;19.40
20848;BMP180;10584;50.854;12.902;2023-08-17T23:43:02;98355.00;;;19.30
20848;BMP180;10584;50.854;12.902;2023-08-17T23:48:24;98349.00;;;19.20
20848;BMP180;10584;50.854;12.902;2023-08-17T23:53:45;98357.00;;;19.20
20848;BMP180;10584;50.854;12.902;2023-08-17T23:59:07;98363.00;;;19.20
